sensor_id;sensor_type;location;lat;lon;timestamp;P1;durP1;ratioP1;P2;durP2;ratioP2
9809;SDS011;4944;52.514;13.192;2023-07-28T00:01:56;3.60;;;3.00;;
9809;SDS011;4944;52.514;13.192;2023-07-28T00:04:26;3.83;;;3.10;;
9809;SDS011;4944;52.514;13.192;2023-07-28T00:06:53;3.57;;;3.37;;
9809;SDS011;4944;52.514;13.192;2023-07-28T00:09:20;4.43;;;3.50;;
9809;SDS011;4944;52.514;13.192;2023-07-28T00:11:48;3.60;;;3.40;;
9809;SDS011;4944;52.514;13.192;2023-07-28T00:14:16;3.90;;;3.60;;
9809;SDS011;4944;52.514;13.192;2023-07-28T00:16:43;3.80;;;3.50;;
9809;SDS011;4944;52.514;13.192;2023-07-28T00:19:10;4.17;;;3.87;;
9809;SDS011;4944;52.514;13.192;2023-07-28T00:21:37;4.10;;;3.80;;
9809;SDS011;4944;52.514;13.192;2023-07-28T00:24:04;4.67;;;4.27;;
9809;SDS011;4944;52.514;13.192;2023-07-28T00:26:31;6.50;;;4.20;;
9809;SDS011;4944;52.514;13.192;2023-07-28T00:28:58;3.97;;;3.67;;
9809;SDS011;4944;52.514;13.192;2023-07-28T00:31:26;4.00;;;3.70;;
9809;SDS011;4944;52.514;13.192;2023-07-28T00:33:53;4.10;;;3.77;;
9809;SDS011;4944;52.514;13.192;2023-07-28T00:36:20;4.57;;;4.27;;
9809;SDS011;4944;52.514;13.192;2023-07-28T00:38:47;6.87;;;3.50;;
9809;SDS011;4944;52.514;13.192;2023-07-28T00:41:13;4.03;;;3.43;;
9809;SDS011;4944;52.514;13.192;2023-07-28T00:43:40;3.70;;;3.43;;
9809;SDS011;4944;52.514;13.192;2023-07-28T00:46:07;3.50;;;3.20;;
9809;SDS011;4944;52.514;13.192;2023-07-28T00:48:37;3.33;;;3.03;;
9809;SDS011;4944;52.514;13.192;2023-07-28T00:51:04;3.60;;;3.30;;
9809;SDS011;4944;52.514;13.192;2023-07-28T00:53:32;3.40;;;3.10;;
9809;SDS011;4944;52.514;13.192;2023-07-28T00:55:59;3.50;;;3.23;;
9809;SDS011;4944;52.514;13.192;2023-07-28T00:58:27;3.40;;;3.17;;
9809;SDS011;4944;52.514;13.192;2023-07-28T01:00:56;3.23;;;3.03;;
9809;SDS011;4944;52.514;13.192;2023-07-28T01:03:23;3.13;;;2.90;;
9809;SDS011;4944;52.514;13.192;2023-07-28T01:05:53;2.70;;;2.60;;
9809;SDS011;4944;52.514;13.192;2023-07-28T01:08:27;5.97;;;2.87;;
9809;SDS011;4944;52.514;13.192;2023-07-28T01:10:58;5.87;;;3.23;;
9809;SDS011;4944;52.514;13.192;2023-07-28T01:13:25;3.50;;;3.17;;
9809;SDS011;4944;52.514;13.192;2023-07-28T01:15:53;3.30;;;3.00;;
9809;SDS011;4944;52.514;13.192;2023-07-28T01:18:20;3.23;;;2.87;;
9809;SDS011;4944;52.514;13.192;2023-07-28T01:20:47;4.20;;;3.30;;
9809;SDS011;4944;52.514;13.192;2023-07-28T01:23:23;3.47;;;3.20;;
9809;SDS011;4944;52.514;13.192;2023-07-28T01:26:04;3.70;;;3.33;;
9809;SDS011;4944;52.514;13.192;2023-07-28T01:28:35;3.20;;;3.00;;
9809;SDS011;4944;52.514;13.192;2023-07-28T01:31:04;4.30;;;3.23;;
9809;SDS011;4944;52.514;13.192;2023-07-28T01:33:31;4.50;;;3.30;;
9809;SDS011;4944;52.514;13.192;2023-07-28T01:35:58;4.33;;;3.93;;
9809;SDS011;4944;52.514;13.192;2023-07-28T01:38:26;3.87;;;3.57;;
9809;SDS011;4944;52.514;13.192;2023-07-28T01:40:53;3.43;;;3.23;;
9809;SDS011;4944;52.514;13.192;2023-07-28T01:43:20;3.80;;;3.50;;
9809;SDS011;4944;52.514;13.192;2023-07-28T01:45:48;5.03;;;3.30;;
9809;SDS011;4944;52.514;13.192;2023-07-28T01:48:15;4.63;;;3.70;;
9809;SDS011;4944;52.514;13.192;2023-07-28T01:50:42;5.17;;;3.80;;
9809;SDS011;4944;52.514;13.192;2023-07-28T01:53:09;6.77;;;4.00;;
9809;SDS011;4944;52.514;13.192;2023-07-28T01:55:35;5.90;;;4.50;;
9809;SDS011;4944;52.514;13.192;2023-07-28T01:58:02;4.97;;;4.47;;
9809;SDS011;4944;52.514;13.192;2023-07-28T02:00:29;6.13;;;4.70;;
9809;SDS011;4944;52.514;13.192;2023-07-28T02:02:57;5.17;;;4.77;;
9809;SDS011;4944;52.514;13.192;2023-07-28T02:05:26;7.10;;;5.40;;
9809;SDS011;4944;52.514;13.192;2023-07-28T02:07:53;6.03;;;5.43;;
9809;SDS011;4944;52.514;13.192;2023-07-28T02:10:21;7.03;;;5.70;;
9809;SDS011;4944;52.514;13.192;2023-07-28T02:12:48;6.83;;;5.77;;
9809;SDS011;4944;52.514;13.192;2023-07-28T02:15:15;7.47;;;5.37;;
9809;SDS011;4944;52.514;13.192;2023-07-28T02:17:42;8.67;;;6.10;;
9809;SDS011;4944;52.514;13.192;2023-07-28T02:20:11;7.83;;;6.27;;
9809;SDS011;4944;52.514;13.192;2023-07-28T02:22:40;10.80;;;6.63;;
9809;SDS011;4944;52.514;13.192;2023-07-28T02:25:07;7.83;;;6.60;;
9809;SDS011;4944;52.514;13.192;2023-07-28T02:27:35;6.90;;;6.20;;
9809;SDS011;4944;52.514;13.192;2023-07-28T02:30:02;9.67;;;6.97;;
9809;SDS011;4944;52.514;13.192;2023-07-28T02:32:29;7.90;;;6.83;;
9809;SDS011;4944;52.514;13.192;2023-07-28T02:34:56;11.07;;;7.00;;
9809;SDS011;4944;52.514;13.192;2023-07-28T02:37:24;7.30;;;6.60;;
9809;SDS011;4944;52.514;13.192;2023-07-28T02:39:51;8.57;;;7.20;;
9809;SDS011;4944;52.514;13.192;2023-07-28T02:42:18;7.60;;;6.87;;
9809;SDS011;4944;52.514;13.192;2023-07-28T02:44:45;10.47;;;7.13;;
9809;SDS011;4944;52.514;13.192;2023-07-28T02:47:12;9.33;;;7.30;;
9809;SDS011;4944;52.514;13.192;2023-07-28T02:49:40;7.73;;;6.83;;
9809;SDS011;4944;52.514;13.192;2023-07-28T02:52:08;11.43;;;7.10;;
9809;SDS011;4944;52.514;13.192;2023-07-28T02:54:36;8.70;;;7.67;;
9809;SDS011;4944;52.514;13.192;2023-07-28T02:57:03;8.23;;;7.43;;
9809;SDS011;4944;52.514;13.192;2023-07-28T02:59:30;9.43;;;7.70;;
9809;SDS011;4944;52.514;13.192;2023-07-28T03:01:57;8.50;;;7.03;;
9809;SDS011;4944;52.514;13.192;2023-07-28T03:04:24;9.77;;;7.60;;
9809;SDS011;4944;52.514;13.192;2023-07-28T03:06:51;9.13;;;7.90;;
9809;SDS011;4944;52.514;13.192;2023-07-28T03:09:17;10.07;;;8.10;;
9809;SDS011;4944;52.514;13.192;2023-07-28T03:11:46;11.20;;;8.00;;
9809;SDS011;4944;52.514;13.192;2023-07-28T03:14:13;12.77;;;8.60;;
9809;SDS011;4944;52.514;13.192;2023-07-28T03:16:40;10.53;;;7.93;;
9809;SDS011;4944;52.514;13.192;2023-07-28T03:19:08;12.30;;;8.13;;
9809;SDS011;4944;52.514;13.192;2023-07-28T03:21:35;11.17;;;7.67;;
9809;SDS011;4944;52.514;13.192;2023-07-28T03:24:02;12.40;;;7.60;;
9809;SDS011;4944;52.514;13.192;2023-07-28T03:26:29;10.73;;;7.43;;
9809;SDS011;4944;52.514;13.192;2023-07-28T03:28:57;9.57;;;7.50;;
9809;SDS011;4944;52.514;13.192;2023-07-28T03:31:24;9.50;;;7.17;;
9809;SDS011;4944;52.514;13.192;2023-07-28T03:33:51;12.57;;;8.23;;
9809;SDS011;4944;52.514;13.192;2023-07-28T03:36:18;11.97;;;7.67;;
9809;SDS011;4944;52.514;13.192;2023-07-28T03:38:45;12.13;;;8.53;;
9809;SDS011;4944;52.514;13.192;2023-07-28T03:41:12;9.03;;;8.03;;
9809;SDS011;4944;52.514;13.192;2023-07-28T03:43:39;9.90;;;8.33;;
9809;SDS011;4944;52.514;13.192;2023-07-28T03:46:08;12.00;;;7.60;;
9809;SDS011;4944;52.514;13.192;2023-07-28T03:48:35;10.93;;;8.87;;
9809;SDS011;4944;52.514;13.192;2023-07-28T03:51:02;12.77;;;8.20;;
9809;SDS011;4944;52.514;13.192;2023-07-28T03:53:29;12.13;;;8.37;;
9809;SDS011;4944;52.514;13.192;2023-07-28T03:55:56;11.83;;;8.60;;
9809;SDS011;4944;52.514;13.192;2023-07-28T03:58:24;15.53;;;8.67;;
9809;SDS011;4944;52.514;13.192;2023-07-28T04:00:51;9.53;;;8.20;;
9809;SDS011;4944;52.514;13.192;2023-07-28T04:03:20;10.23;;;8.73;;
9809;SDS011;4944;52.514;13.192;2023-07-28T04:05:47;13.43;;;9.13;;
9809;SDS011;4944;52.514;13.192;2023-07-28T04:08:16;10.53;;;8.60;;
9809;SDS011;4944;52.514;13.192;2023-07-28T04:10:42;9.63;;;8.43;;
9809;SDS011;4944;52.514;13.192;2023-07-28T04:13:09;11.93;;;8.63;;
9809;SDS011;4944;52.514;13.192;2023-07-28T04:15:36;12.17;;;8.40;;
9809;SDS011;4944;52.514;13.192;2023-07-28T04:18:03;11.93;;;8.93;;
9809;SDS011;4944;52.514;13.192;2023-07-28T04:20:31;11.47;;;9.77;;
9809;SDS011;4944;52.514;13.192;2023-07-28T04:22:58;11.87;;;9.13;;
9809;SDS011;4944;52.514;13.192;2023-07-28T04:25:25;10.40;;;9.30;;
9809;SDS011;4944;52.514;13.192;2023-07-28T04:27:52;11.13;;;9.50;;
9809;SDS011;4944;52.514;13.192;2023-07-28T04:30:20;11.70;;;9.43;;
9809;SDS011;4944;52.514;13.192;2023-07-28T04:32:46;13.07;;;9.60;;
9809;SDS011;4944;52.514;13.192;2023-07-28T04:35:13;12.87;;;9.57;;
9809;SDS011;4944;52.514;13.192;2023-07-28T04:37:42;10.70;;;9.60;;
9809;SDS011;4944;52.514;13.192;2023-07-28T04:40:09;10.57;;;9.50;;
9809;SDS011;4944;52.514;13.192;2023-07-28T04:42:36;9.47;;;8.57;;
9809;SDS011;4944;52.514;13.192;2023-07-28T04:45:03;11.90;;;10.27;;
9809;SDS011;4944;52.514;13.192;2023-07-28T04:47:31;10.67;;;9.57;;
9809;SDS011;4944;52.514;13.192;2023-07-28T04:49:57;14.63;;;9.93;;
9809;SDS011;4944;52.514;13.192;2023-07-28T04:52:24;10.60;;;9.50;;
9809;SDS011;4944;52.514;13.192;2023-07-28T04:54:53;13.33;;;9.43;;
9809;SDS011;4944;52.514;13.192;2023-07-28T04:57:19;13.83;;;10.43;;
9809;SDS011;4944;52.514;13.192;2023-07-28T04:59:46;11.83;;;10.03;;
9809;SDS011;4944;52.514;13.192;2023-07-28T05:02:13;10.97;;;9.87;;
9809;SDS011;4944;52.514;13.192;2023-07-28T05:04:43;11.90;;;10.20;;
9809;SDS011;4944;52.514;13.192;2023-07-28T05:07:10;11.47;;;10.17;;
9809;SDS011;4944;52.514;13.192;2023-07-28T05:09:37;12.80;;;9.97;;
9809;SDS011;4944;52.514;13.192;2023-07-28T05:12:05;11.07;;;10.00;;
9809;SDS011;4944;52.514;13.192;2023-07-28T05:14:34;10.87;;;9.57;;
9809;SDS011;4944;52.514;13.192;2023-07-28T05:17:00;12.57;;;9.73;;
9809;SDS011;4944;52.514;13.192;2023-07-28T05:19:27;12.03;;;9.67;;
9809;SDS011;4944;52.514;13.192;2023-07-28T05:21:54;12.67;;;9.70;;
9809;SDS011;4944;52.514;13.192;2023-07-28T05:24:21;10.27;;;9.23;;
9809;SDS011;4944;52.514;13.192;2023-07-28T05:26:48;11.90;;;9.50;;
9809;SDS011;4944;52.514;13.192;2023-07-28T05:29:16;10.53;;;9.00;;
9809;SDS011;4944;52.514;13.192;2023-07-28T05:31:43;9.63;;;8.67;;
9809;SDS011;4944;52.514;13.192;2023-07-28T05:34:10;9.80;;;8.87;;
9809;SDS011;4944;52.514;13.192;2023-07-28T05:36:38;10.47;;;9.03;;
9809;SDS011;4944;52.514;13.192;2023-07-28T05:39:05;9.37;;;8.30;;
9809;SDS011;4944;52.514;13.192;2023-07-28T05:41:31;9.67;;;8.87;;
9809;SDS011;4944;52.514;13.192;2023-07-28T05:43:58;9.37;;;8.47;;
9809;SDS011;4944;52.514;13.192;2023-07-28T05:46:27;10.73;;;8.60;;
9809;SDS011;4944;52.514;13.192;2023-07-28T05:48:53;9.27;;;7.90;;
9809;SDS011;4944;52.514;13.192;2023-07-28T05:51:21;9.43;;;7.87;;
9809;SDS011;4944;52.514;13.192;2023-07-28T05:53:48;9.20;;;8.27;;
9809;SDS011;4944;52.514;13.192;2023-07-28T05:56:15;10.17;;;8.07;;
9809;SDS011;4944;52.514;13.192;2023-07-28T05:58:43;9.03;;;8.07;;
9809;SDS011;4944;52.514;13.192;2023-07-28T06:01:10;9.10;;;8.20;;
9809;SDS011;4944;52.514;13.192;2023-07-28T06:03:38;9.17;;;8.27;;
9809;SDS011;4944;52.514;13.192;2023-07-28T06:06:05;8.10;;;7.43;;
9809;SDS011;4944;52.514;13.192;2023-07-28T06:08:32;7.87;;;7.27;;
9809;SDS011;4944;52.514;13.192;2023-07-28T06:11:00;8.47;;;7.70;;
9809;SDS011;4944;52.514;13.192;2023-07-28T06:13:29;9.37;;;7.90;;
9809;SDS011;4944;52.514;13.192;2023-07-28T06:15:55;8.87;;;8.03;;
9809;SDS011;4944;52.514;13.192;2023-07-28T06:18:23;8.47;;;7.70;;
9809;SDS011;4944;52.514;13.192;2023-07-28T06:20:51;8.33;;;7.63;;
9809;SDS011;4944;52.514;13.192;2023-07-28T06:23:18;7.93;;;7.23;;
9809;SDS011;4944;52.514;13.192;2023-07-28T06:25:45;8.20;;;7.53;;
9809;SDS011;4944;52.514;13.192;2023-07-28T06:28:12;8.20;;;6.90;;
9809;SDS011;4944;52.514;13.192;2023-07-28T06:30:39;7.67;;;7.07;;
9809;SDS011;4944;52.514;13.192;2023-07-28T06:33:06;8.00;;;7.40;;
9809;SDS011;4944;52.514;13.192;2023-07-28T06:35:34;7.13;;;6.63;;
9809;SDS011;4944;52.514;13.192;2023-07-28T06:38:02;8.10;;;7.33;;
9809;SDS011;4944;52.514;13.192;2023-07-28T06:40:29;7.60;;;6.87;;
9809;SDS011;4944;52.514;13.192;2023-07-28T06:42:56;7.10;;;6.60;;
9809;SDS011;4944;52.514;13.192;2023-07-28T06:45:23;6.93;;;6.30;;
9809;SDS011;4944;52.514;13.192;2023-07-28T06:47:50;7.37;;;6.77;;
9809;SDS011;4944;52.514;13.192;2023-07-28T06:50:17;6.70;;;6.10;;
9809;SDS011;4944;52.514;13.192;2023-07-28T06:52:45;7.53;;;6.93;;
9809;SDS011;4944;52.514;13.192;2023-07-28T06:55:14;7.07;;;6.47;;
9809;SDS011;4944;52.514;13.192;2023-07-28T06:57:41;7.00;;;6.30;;
9809;SDS011;4944;52.514;13.192;2023-07-28T07:00:09;6.70;;;6.10;;
9809;SDS011;4944;52.514;13.192;2023-07-28T07:02:36;5.90;;;5.40;;
9809;SDS011;4944;52.514;13.192;2023-07-28T07:05:03;5.60;;;5.30;;
9809;SDS011;4944;52.514;13.192;2023-07-28T07:07:31;5.77;;;5.33;;
9809;SDS011;4944;52.514;13.192;2023-07-28T07:09:58;5.90;;;5.40;;
9809;SDS011;4944;52.514;13.192;2023-07-28T07:12:26;6.40;;;5.90;;
9809;SDS011;4944;52.514;13.192;2023-07-28T07:14:53;6.13;;;5.33;;
9809;SDS011;4944;52.514;13.192;2023-07-28T07:17:20;6.23;;;4.83;;
9809;SDS011;4944;52.514;13.192;2023-07-28T07:19:47;4.93;;;4.57;;
9809;SDS011;4944;52.514;13.192;2023-07-28T07:22:14;5.00;;;4.50;;
9809;SDS011;4944;52.514;13.192;2023-07-28T07:24:41;4.50;;;4.20;;
9809;SDS011;4944;52.514;13.192;2023-07-28T07:27:08;3.80;;;3.60;;
9809;SDS011;4944;52.514;13.192;2023-07-28T07:29:37;3.00;;;2.90;;
9809;SDS011;4944;52.514;13.192;2023-07-28T07:32:04;3.60;;;3.13;;
9809;SDS011;4944;52.514;13.192;2023-07-28T07:34:33;3.60;;;2.90;;
9809;SDS011;4944;52.514;13.192;2023-07-28T07:37:02;2.93;;;2.83;;
9809;SDS011;4944;52.514;13.192;2023-07-28T07:39:29;2.50;;;2.40;;
9809;SDS011;4944;52.514;13.192;2023-07-28T07:41:56;2.70;;;2.50;;
9809;SDS011;4944;52.514;13.192;2023-07-28T07:44:23;2.30;;;2.20;;
9809;SDS011;4944;52.514;13.192;2023-07-28T07:46:52;4.00;;;2.20;;
9809;SDS011;4944;52.514;13.192;2023-07-28T07:49:19;2.93;;;2.57;;
9809;SDS011;4944;52.514;13.192;2023-07-28T07:51:46;2.57;;;2.43;;
9809;SDS011;4944;52.514;13.192;2023-07-28T07:54:13;2.33;;;2.23;;
9809;SDS011;4944;52.514;13.192;2023-07-28T07:56:43;2.27;;;2.17;;
9809;SDS011;4944;52.514;13.192;2023-07-28T07:59:11;2.37;;;2.20;;
9809;SDS011;4944;52.514;13.192;2023-07-28T08:01:38;2.10;;;2.00;;
9809;SDS011;4944;52.514;13.192;2023-07-28T08:04:06;2.10;;;2.00;;
9809;SDS011;4944;52.514;13.192;2023-07-28T08:06:34;2.30;;;2.07;;
9809;SDS011;4944;52.514;13.192;2023-07-28T08:09:00;2.40;;;1.80;;
9809;SDS011;4944;52.514;13.192;2023-07-28T08:11:27;1.93;;;1.80;;
9809;SDS011;4944;52.514;13.192;2023-07-28T08:13:54;3.00;;;2.10;;
9809;SDS011;4944;52.514;13.192;2023-07-28T08:16:21;2.70;;;1.90;;
9809;SDS011;4944;52.514;13.192;2023-07-28T08:18:48;3.03;;;1.70;;
9809;SDS011;4944;52.514;13.192;2023-07-28T08:21:16;1.73;;;1.70;;
9809;SDS011;4944;52.514;13.192;2023-07-28T08:23:43;1.87;;;1.83;;
9809;SDS011;4944;52.514;13.192;2023-07-28T08:26:10;1.60;;;1.60;;
9809;SDS011;4944;52.514;13.192;2023-07-28T08:28:37;2.00;;;1.90;;
9809;SDS011;4944;52.514;13.192;2023-07-28T08:31:04;2.17;;;1.53;;
9809;SDS011;4944;52.514;13.192;2023-07-28T08:33:31;1.60;;;1.50;;
9809;SDS011;4944;52.514;13.192;2023-07-28T08:35:58;1.80;;;1.70;;
9809;SDS011;4944;52.514;13.192;2023-07-28T08:38:26;1.67;;;1.57;;
9809;SDS011;4944;52.514;13.192;2023-07-28T08:40:53;1.73;;;1.70;;
9809;SDS011;4944;52.514;13.192;2023-07-28T08:43:19;2.10;;;2.00;;
9809;SDS011;4944;52.514;13.192;2023-07-28T08:45:47;1.80;;;1.80;;
9809;SDS011;4944;52.514;13.192;2023-07-28T08:48:13;1.67;;;1.57;;
9809;SDS011;4944;52.514;13.192;2023-07-28T08:50:40;1.73;;;1.63;;
9809;SDS011;4944;52.514;13.192;2023-07-28T08:53:07;2.90;;;1.80;;
9809;SDS011;4944;52.514;13.192;2023-07-28T08:55:36;1.73;;;1.73;;
9809;SDS011;4944;52.514;13.192;2023-07-28T08:58:15;1.80;;;1.70;;
9809;SDS011;4944;52.514;13.192;2023-07-28T09:00:44;2.93;;;1.70;;
9809;SDS011;4944;52.514;13.192;2023-07-28T09:03:13;1.87;;;1.77;;
9809;SDS011;4944;52.514;13.192;2023-07-28T09:05:41;1.60;;;1.60;;
9809;SDS011;4944;52.514;13.192;2023-07-28T09:08:08;1.87;;;1.60;;
9809;SDS011;4944;52.514;13.192;2023-07-28T09:10:43;1.67;;;1.60;;
9809;SDS011;4944;52.514;13.192;2023-07-28T09:13:12;3.03;;;1.53;;
9809;SDS011;4944;52.514;13.192;2023-07-28T09:15:39;1.70;;;1.70;;
9809;SDS011;4944;52.514;13.192;2023-07-28T09:18:09;1.70;;;1.67;;
9809;SDS011;4944;52.514;13.192;2023-07-28T09:20:38;1.90;;;1.80;;
9809;SDS011;4944;52.514;13.192;2023-07-28T09:23:07;1.90;;;1.80;;
9809;SDS011;4944;52.514;13.192;2023-07-28T09:25:35;1.60;;;1.60;;
9809;SDS011;4944;52.514;13.192;2023-07-28T09:28:04;1.73;;;1.70;;
9809;SDS011;4944;52.514;13.192;2023-07-28T09:30:43;1.70;;;1.60;;
9809;SDS011;4944;52.514;13.192;2023-07-28T09:33:12;2.93;;;2.10;;
9809;SDS011;4944;52.514;13.192;2023-07-28T09:35:47;1.60;;;1.50;;
9809;SDS011;4944;52.514;13.192;2023-07-28T09:38:14;2.90;;;1.60;;
9809;SDS011;4944;52.514;13.192;2023-07-28T09:40:42;1.30;;;1.30;;
9809;SDS011;4944;52.514;13.192;2023-07-28T09:43:11;1.60;;;1.50;;
9809;SDS011;4944;52.514;13.192;2023-07-28T09:45:38;1.63;;;1.50;;
9809;SDS011;4944;52.514;13.192;2023-07-28T09:48:06;1.63;;;1.53;;
9809;SDS011;4944;52.514;13.192;2023-07-28T09:50:36;1.73;;;1.63;;
9809;SDS011;4944;52.514;13.192;2023-07-28T09:53:05;1.60;;;1.50;;
9809;SDS011;4944;52.514;13.192;2023-07-28T09:55:35;2.10;;;2.00;;
9809;SDS011;4944;52.514;13.192;2023-07-28T09:58:04;1.87;;;1.77;;
9809;SDS011;4944;52.514;13.192;2023-07-28T10:00:35;1.63;;;1.53;;
9809;SDS011;4944;52.514;13.192;2023-07-28T10:03:03;1.50;;;1.50;;
9809;SDS011;4944;52.514;13.192;2023-07-28T10:05:30;1.40;;;1.40;;
9809;SDS011;4944;52.514;13.192;2023-07-28T10:07:59;1.43;;;1.43;;
9809;SDS011;4944;52.514;13.192;2023-07-28T10:10:28;2.00;;;1.90;;
9809;SDS011;4944;52.514;13.192;2023-07-28T10:12:57;1.50;;;1.50;;
9809;SDS011;4944;52.514;13.192;2023-07-28T10:15:27;2.27;;;1.77;;
9809;SDS011;4944;52.514;13.192;2023-07-28T10:17:56;1.83;;;1.80;;
9809;SDS011;4944;52.514;13.192;2023-07-28T10:20:28;1.53;;;1.53;;
9809;SDS011;4944;52.514;13.192;2023-07-28T10:23:03;1.77;;;1.70;;
9809;SDS011;4944;52.514;13.192;2023-07-28T10:25:32;2.40;;;2.10;;
9809;SDS011;4944;52.514;13.192;2023-07-28T10:28:00;2.60;;;2.43;;
9809;SDS011;4944;52.514;13.192;2023-07-28T10:30:29;2.17;;;2.07;;
9809;SDS011;4944;52.514;13.192;2023-07-28T10:33:06;2.20;;;2.10;;
9809;SDS011;4944;52.514;13.192;2023-07-28T10:35:51;2.23;;;2.13;;
9809;SDS011;4944;52.514;13.192;2023-07-28T10:38:29;2.23;;;2.10;;
9809;SDS011;4944;52.514;13.192;2023-07-28T10:41:05;3.03;;;2.10;;
9809;SDS011;4944;52.514;13.192;2023-07-28T10:43:38;2.27;;;2.17;;
9809;SDS011;4944;52.514;13.192;2023-07-28T10:46:05;2.53;;;2.33;;
9809;SDS011;4944;52.514;13.192;2023-07-28T10:48:36;2.40;;;1.90;;
9809;SDS011;4944;52.514;13.192;2023-07-28T10:51:07;2.53;;;2.30;;
9809;SDS011;4944;52.514;13.192;2023-07-28T10:53:33;2.20;;;2.10;;
9809;SDS011;4944;52.514;13.192;2023-07-28T10:56:02;1.63;;;1.63;;
9809;SDS011;4944;52.514;13.192;2023-07-28T10:58:30;1.90;;;1.80;;
9809;SDS011;4944;52.514;13.192;2023-07-28T11:00:57;2.43;;;1.80;;
9809;SDS011;4944;52.514;13.192;2023-07-28T11:03:24;2.00;;;1.90;;
9809;SDS011;4944;52.514;13.192;2023-07-28T11:05:53;1.73;;;1.63;;
9809;SDS011;4944;52.514;13.192;2023-07-28T11:08:21;2.40;;;1.53;;
9809;SDS011;4944;52.514;13.192;2023-07-28T11:10:49;3.33;;;1.87;;
9809;SDS011;4944;52.514;13.192;2023-07-28T11:13:16;2.40;;;1.60;;
9809;SDS011;4944;52.514;13.192;2023-07-28T11:15:43;2.10;;;1.90;;
9809;SDS011;4944;52.514;13.192;2023-07-28T11:18:10;1.90;;;1.50;;
9809;SDS011;4944;52.514;13.192;2023-07-28T11:20:37;2.00;;;1.80;;
9809;SDS011;4944;52.514;13.192;2023-07-28T11:23:05;1.50;;;1.50;;
9809;SDS011;4944;52.514;13.192;2023-07-28T11:25:33;1.83;;;1.73;;
9809;SDS011;4944;52.514;13.192;2023-07-28T11:28:01;2.07;;;1.97;;
9809;SDS011;4944;52.514;13.192;2023-07-28T11:30:30;2.00;;;1.90;;
9809;SDS011;4944;52.514;13.192;2023-07-28T11:32:58;1.73;;;1.63;;
9809;SDS011;4944;52.514;13.192;2023-07-28T11:35:25;2.20;;;2.10;;
9809;SDS011;4944;52.514;13.192;2023-07-28T11:37:52;2.10;;;2.00;;
9809;SDS011;4944;52.514;13.192;2023-07-28T11:40:22;2.40;;;2.20;;
9809;SDS011;4944;52.514;13.192;2023-07-28T11:42:51;2.30;;;2.20;;
9809;SDS011;4944;52.514;13.192;2023-07-28T11:45:19;2.40;;;2.10;;
9809;SDS011;4944;52.514;13.192;2023-07-28T11:47:56;2.20;;;2.00;;
9809;SDS011;4944;52.514;13.192;2023-07-28T11:50:25;2.13;;;2.00;;
9809;SDS011;4944;52.514;13.192;2023-07-28T11:52:53;2.13;;;2.00;;
9809;SDS011;4944;52.514;13.192;2023-07-28T11:55:22;1.70;;;1.60;;
9809;SDS011;4944;52.514;13.192;2023-07-28T11:57:49;2.20;;;2.10;;
9809;SDS011;4944;52.514;13.192;2023-07-28T12:00:18;2.03;;;1.93;;
9809;SDS011;4944;52.514;13.192;2023-07-28T12:03:00;2.23;;;2.07;;
9809;SDS011;4944;52.514;13.192;2023-07-28T12:05:29;2.37;;;2.27;;
9809;SDS011;4944;52.514;13.192;2023-07-28T12:07:57;2.03;;;1.93;;
9809;SDS011;4944;52.514;13.192;2023-07-28T12:10:25;1.90;;;1.80;;
9809;SDS011;4944;52.514;13.192;2023-07-28T12:12:52;1.90;;;1.80;;
9809;SDS011;4944;52.514;13.192;2023-07-28T12:15:20;1.77;;;1.67;;
9809;SDS011;4944;52.514;13.192;2023-07-28T12:18:08;7.53;;;2.25;;
9809;SDS011;4944;52.514;13.192;2023-07-28T12:20:37;1.83;;;1.73;;
9809;SDS011;4944;52.514;13.192;2023-07-28T12:23:04;1.85;;;1.50;;
9809;SDS011;4944;52.514;13.192;2023-07-28T12:25:33;2.13;;;2.00;;
9809;SDS011;4944;52.514;13.192;2023-07-28T12:28:01;2.35;;;2.25;;
9809;SDS011;4944;52.514;13.192;2023-07-28T12:30:28;2.10;;;2.00;;
9809;SDS011;4944;52.514;13.192;2023-07-28T12:32:56;4.23;;;2.30;;
9809;SDS011;4944;52.514;13.192;2023-07-28T12:35:23;2.20;;;2.10;;
9809;SDS011;4944;52.514;13.192;2023-07-28T12:37:50;2.37;;;2.07;;
9809;SDS011;4944;52.514;13.192;2023-07-28T12:40:17;2.00;;;1.90;;
9809;SDS011;4944;52.514;13.192;2023-07-28T12:42:46;2.10;;;2.00;;
9809;SDS011;4944;52.514;13.192;2023-07-28T12:45:14;2.10;;;2.00;;
9809;SDS011;4944;52.514;13.192;2023-07-28T12:47:41;2.40;;;2.30;;
9809;SDS011;4944;52.514;13.192;2023-07-28T12:50:09;1.80;;;1.80;;
9809;SDS011;4944;52.514;13.192;2023-07-28T12:52:36;2.40;;;2.30;;
9809;SDS011;4944;52.514;13.192;2023-07-28T12:55:03;2.03;;;1.93;;
9809;SDS011;4944;52.514;13.192;2023-07-28T12:57:31;1.97;;;1.87;;
9809;SDS011;4944;52.514;13.192;2023-07-28T12:59:59;2.10;;;2.00;;
9809;SDS011;4944;52.514;13.192;2023-07-28T13:02:26;2.93;;;1.93;;
9809;SDS011;4944;52.514;13.192;2023-07-28T13:04:53;2.30;;;2.20;;
9809;SDS011;4944;52.514;13.192;2023-07-28T13:07:20;2.47;;;2.20;;
9809;SDS011;4944;52.514;13.192;2023-07-28T13:09:47;2.30;;;2.10;;
9809;SDS011;4944;52.514;13.192;2023-07-28T13:12:14;2.73;;;2.53;;
9809;SDS011;4944;52.514;13.192;2023-07-28T13:14:41;2.53;;;2.40;;
9809;SDS011;4944;52.514;13.192;2023-07-28T13:17:09;2.70;;;2.60;;
9809;SDS011;4944;52.514;13.192;2023-07-28T13:19:38;2.77;;;2.57;;
9809;SDS011;4944;52.514;13.192;2023-07-28T13:22:04;2.80;;;2.70;;
9809;SDS011;4944;52.514;13.192;2023-07-28T13:24:31;2.53;;;2.43;;
9809;SDS011;4944;52.514;13.192;2023-07-28T13:26:58;2.83;;;2.63;;
9809;SDS011;4944;52.514;13.192;2023-07-28T13:29:25;2.40;;;2.20;;
9809;SDS011;4944;52.514;13.192;2023-07-28T13:31:57;2.40;;;2.10;;
9809;SDS011;4944;52.514;13.192;2023-07-28T13:34:27;2.50;;;2.40;;
9809;SDS011;4944;52.514;13.192;2023-07-28T13:36:54;2.83;;;2.70;;
9809;SDS011;4944;52.514;13.192;2023-07-28T13:39:21;2.70;;;2.50;;
9809;SDS011;4944;52.514;13.192;2023-07-28T13:41:49;2.47;;;2.37;;
9809;SDS011;4944;52.514;13.192;2023-07-28T13:44:16;2.40;;;2.30;;
9809;SDS011;4944;52.514;13.192;2023-07-28T13:46:43;2.63;;;2.50;;
9809;SDS011;4944;52.514;13.192;2023-07-28T13:49:10;2.43;;;2.33;;
9809;SDS011;4944;52.514;13.192;2023-07-28T13:51:38;2.43;;;2.23;;
9809;SDS011;4944;52.514;13.192;2023-07-28T13:54:05;2.53;;;2.43;;
9809;SDS011;4944;52.514;13.192;2023-07-28T13:56:32;3.35;;;2.08;;
9809;SDS011;4944;52.514;13.192;2023-07-28T13:58:59;2.00;;;2.00;;
9809;SDS011;4944;52.514;13.192;2023-07-28T14:01:26;1.73;;;1.63;;
9809;SDS011;4944;52.514;13.192;2023-07-28T14:03:53;1.70;;;1.70;;
9809;SDS011;4944;52.514;13.192;2023-07-28T14:06:19;1.97;;;1.87;;
9809;SDS011;4944;52.514;13.192;2023-07-28T14:08:48;1.90;;;1.80;;
9809;SDS011;4944;52.514;13.192;2023-07-28T14:11:15;1.50;;;1.43;;
9809;SDS011;4944;52.514;13.192;2023-07-28T14:13:42;1.40;;;1.40;;
9809;SDS011;4944;52.514;13.192;2023-07-28T14:16:08;1.50;;;1.50;;
9809;SDS011;4944;52.514;13.192;2023-07-28T14:18:36;1.65;;;1.58;;
9809;SDS011;4944;52.514;13.192;2023-07-28T14:21:03;1.42;;;1.42;;
9809;SDS011;4944;52.514;13.192;2023-07-28T14:23:30;1.58;;;1.50;;
9809;SDS011;4944;52.514;13.192;2023-07-28T14:25:58;1.75;;;1.42;;
9809;SDS011;4944;52.514;13.192;2023-07-28T14:28:25;1.50;;;1.50;;
9809;SDS011;4944;52.514;13.192;2023-07-28T14:30:52;2.10;;;2.00;;
9809;SDS011;4944;52.514;13.192;2023-07-28T14:33:18;1.80;;;1.70;;
9809;SDS011;4944;52.514;13.192;2023-07-28T14:35:47;1.77;;;1.77;;
9809;SDS011;4944;52.514;13.192;2023-07-28T14:38:15;1.63;;;1.60;;
9809;SDS011;4944;52.514;13.192;2023-07-28T14:40:42;1.77;;;1.67;;
9809;SDS011;4944;52.514;13.192;2023-07-28T14:43:15;1.58;;;1.58;;
9809;SDS011;4944;52.514;13.192;2023-07-28T14:45:42;2.03;;;1.92;;
9809;SDS011;4944;52.514;13.192;2023-07-28T14:48:08;1.80;;;1.70;;
9809;SDS011;4944;52.514;13.192;2023-07-28T14:50:35;2.08;;;1.98;;
9809;SDS011;4944;52.514;13.192;2023-07-28T14:53:02;3.17;;;2.30;;
9809;SDS011;4944;52.514;13.192;2023-07-28T14:55:50;2.00;;;1.90;;
9809;SDS011;4944;52.514;13.192;2023-07-28T14:58:17;2.80;;;1.90;;
9809;SDS011;4944;52.514;13.192;2023-07-28T15:00:44;2.25;;;2.15;;
9809;SDS011;4944;52.514;13.192;2023-07-28T15:03:11;2.13;;;2.03;;